Time;durP1;ratioP1;P1;durP2;ratioP2;P2;SDS_P1;SDS_P2;PMS_P1;PMS_P2;Temp;Humidity;BMP_temperature;BMP_pressure;BME280_temperature;BME280_humidity;BME280_pressure;Samples;Min_cycle;Max_cycle;Signal;HPM_P1;HPM_P2
2022/04/26 03:38:43;;;;;;;3.47;2.60;;;7.80;1.40;;;8.74;100.00;94865.22;647281;212;31959;-74
2022/04/26 03:41:24;;;;;;;2.55;2.30;;;7.80;1.40;;;8.71;100.00;94858.74;648520;212;32665;-73
2022/04/26 03:44:05;;;;;;;4.28;2.80;;;7.80;1.40;;;8.70;100.00;94863.48;619677;222;42783;-75
2022/04/26 03:46:48;;;;;;;2.07;1.40;;;7.80;1.40;;;8.67;100.00;94862.09;648656;212;31554;-74
2022/04/26 03:49:31;;;;;;;2.50;1.30;;;7.80;1.40;;;8.70;100.00;94867.47;648611;216;31585;-73
2022/04/26 03:52:13;;;;;;;1.50;0.97;;;7.80;1.40;;;8.73;100.00;94864.91;621430;226;31883;-74
2022/04/26 03:54:58;;;;;;;2.65;1.45;;;7.70;1.40;;;8.63;100.00;94868.34;619798;226;32111;-74
2022/04/26 03:57:40;;;;;;;1.27;0.80;;;7.70;1.40;;;8.65;100.00;94875.80;620121;222;31967;-74
2022/04/26 04:00:21;;;;;;;9.20;1.70;;;7.70;1.40;;;8.63;100.00;94875.90;647494;213;31543;-74
2022/04/26 04:03:03;;;;;;;1.70;1.30;;;7.70;1.40;;;8.62;100.00;94872.95;648972;212;31570;-74
2022/04/26 04:05:45;;;;;;;2.80;2.00;;;7.70;1.40;;;8.66;100.00;94871.08;647863;216;31561;-74
2022/04/26 04:08:27;;;;;;;1.90;1.57;;;7.70;1.40;;;8.73;100.00;94872.66;638318;216;31704;-74
2022/04/26 04:11:08;;;;;;;3.50;2.60;;;7.70;1.40;;;8.85;100.00;94877.09;647037;212;31533;-74
2022/04/26 04:13:50;;;;;;;1.53;1.43;;;7.70;1.40;;;8.99;100.00;94883.73;620358;222;31954;-73
2022/04/26 04:16:32;;;;;;;2.80;1.37;;;7.80;1.40;;;9.02;100.00;94887.88;631341;222;31983;-74
2022/04/26 04:19:18;;;;;;;1.70;1.30;;;7.80;1.40;;;8.98;100.00;94884.25;647178;216;31697;-73
2022/04/26 04:22:00;;;;;;;2.50;2.30;;;7.80;1.40;;;8.92;100.00;94889.45;619932;222;32100;-73
2022/04/26 04:24:42;;;;;;;2.30;1.50;;;7.80;1.40;;;8.93;100.00;94887.56;647358;212;31577;-75
2022/04/26 04:27:23;;;;;;;5.70;1.97;;;7.80;1.40;;;8.97;100.00;94889.69;648701;212;31708;-73
2022/04/26 04:30:07;;;;;;;3.65;2.45;;;7.80;1.40;;;8.90;100.00;94888.36;648160;212;31634;-73
2022/04/26 04:32:49;;;;;;;2.40;1.40;;;7.80;1.40;;;8.97;100.00;94888.33;648677;212;31536;-73
2022/04/26 04:35:51;;;;;;;3.75;2.03;;;7.80;1.40;;;9.02;100.00;94887.66;648473;212;31760;-74
2022/04/26 04:38:33;;;;;;;2.63;2.43;;;7.80;1.40;;;9.00;100.00;94891.12;646405;212;31585;-73
2022/04/26 04:41:15;;;;;;;5.43;4.50;;;7.80;1.40;;;8.92;100.00;94889.83;648037;216;31596;-72
2022/04/26 04:43:57;;;;;;;4.30;3.33;;;7.80;1.40;;;9.13;100.00;94893.59;648040;216;31560;-74
2022/04/26 04:46:39;;;;;;;7.80;3.93;;;8.00;1.40;;;9.19;100.00;94894.83;647549;216;31559;-72
2022/04/26 04:49:23;;;;;;;1.80;1.70;;;8.00;1.40;;;9.04;100.00;94896.11;647209;216;32227;-74
2022/04/26 04:54:39;;;;;;;2.58;1.50;;;8.00;1.40;;;9.04;100.00;94899.47;647822;216;31958;-75
2022/04/26 04:57:25;;;;;;;2.83;1.62;;;8.00;1.40;;;9.08;100.00;94900.23;649416;216;31608;-74
2022/04/26 05:00:08;;;;;;;3.07;2.60;;;8.00;1.40;;;9.25;100.00;94906.68;648380;212;32043;-74
2022/04/26 05:02:49;;;;;;;3.10;2.40;;;8.00;1.40;;;9.15;100.00;94903.38;648686;216;31588;-73
2022/04/26 05:05:31;;;;;;;3.10;2.80;;;8.00;1.40;;;9.19;100.00;94904.47;647962;212;31960;-73
2022/04/26 05:08:13;;;;;;;2.83;2.20;;;8.10;1.40;;;9.29;100.00;94910.42;613427;226;32655;-75
2022/04/26 05:11:01;;;;;;;4.32;2.72;;;8.10;1.40;;;9.30;100.00;94913.20;646060;216;31598;-75
2022/04/26 05:13:44;;;;;;;2.40;2.20;;;8.10;1.40;;;9.37;100.00;94912.14;620765;222;32166;-75
2022/04/26 05:16:30;;;;;;;2.70;2.50;;;8.20;1.40;;;9.47;100.00;94908.47;619211;222;32084;-74
2022/04/26 05:19:12;;;;;;;1.83;1.73;;;8.20;1.40;;;9.49;100.00;94910.06;646776;212;32213;-74
2022/04/26 05:21:56;;;;;;;4.17;2.60;;;8.20;1.40;;;9.64;100.00;94904.92;619741;226;31943;-74
2022/04/26 05:27:31;;;;;;;2.50;1.80;;;8.40;1.40;;;9.98;100.00;94911.61;646969;212;31657;-73
2022/04/26 05:30:14;;;;;;;2.37;2.03;;;8.70;1.40;;;9.81;100.00;94912.31;646623;216;37413;-74
2022/04/26 05:32:55;;;;;;;2.45;1.90;;;8.30;1.40;;;9.77;100.00;94912.37;645413;216;31855;-73
2022/04/26 05:35:51;;;;;;;4.50;3.22;;;8.40;1.40;;;9.75;100.00;94917.47;647133;212;33332;-74
2022/04/26 05:38:34;;;;;;;1.90;1.30;;;8.50;1.40;;;9.54;100.00;94930.13;646705;216;31661;-73
2022/04/26 05:41:14;;;;;;;2.30;1.80;;;8.30;1.40;;;9.61;100.00;94929.78;646710;212;31985;-75
2022/04/26 05:43:56;;;;;;;2.03;1.77;;;8.40;1.40;;;9.51;100.00;94935.08;646575;212;31889;-73
2022/04/26 05:46:38;;;;;;;3.20;1.52;;;8.30;1.40;;;9.49;100.00;94934.58;646160;216;31757;-73
2022/04/26 05:49:19;;;;;;;2.17;1.80;;;8.30;1.40;;;9.48;100.00;94940.80;647387;216;31683;-74
2022/04/26 05:52:02;;;;;;;3.37;2.10;;;8.30;1.40;;;9.52;100.00;94936.84;647125;216;31788;-73
2022/04/26 05:54:43;;;;;;;1.73;1.63;;;8.30;1.40;;;9.64;100.00;94933.50;646745;216;32341;-74
2022/04/26 05:57:26;;;;;;;2.78;1.85;;;8.30;1.40;;;9.75;100.00;94936.52;646822;212;32117;-74
2022/04/26 06:00:07;;;;;;;1.83;1.52;;;8.50;1.40;;;9.81;100.00;94937.34;620018;225;32544;-74
2022/04/26 06:02:52;;;;;;;3.40;2.40;;;8.50;1.40;;;9.82;100.00;94938.02;647234;216;31587;-74
2022/04/26 06:05:34;;;;;;;1.70;1.20;;;8.40;1.40;;;9.92;100.00;94932.74;619938;226;31895;-74
2022/04/26 06:08:15;;;;;;;2.33;2.20;;;8.60;1.40;;;9.83;100.00;94933.64;617453;222;32093;-74
2022/04/26 06:10:57;;;;;;;2.90;1.60;;;8.70;1.40;;;9.90;100.00;94933.92;646565;216;42574;-74
2022/04/26 06:13:39;;;;;;;1.50;1.27;;;8.80;1.40;;;10.07;100.00;94931.63;619250;226;31870;-73
2022/04/26 06:16:21;;;;;;;1.90;1.63;;;8.90;1.40;;;10.45;100.00;94925.09;647803;216;32167;-74
2022/04/26 06:19:05;;;;;;;3.17;1.40;;;9.20;1.40;;;10.69;100.00;94930.20;644533;216;32302;-74
2022/04/26 06:21:47;;;;;;;3.62;2.08;;;9.30;1.40;;;10.76;100.00;94932.47;646546;216;31605;-74
2022/04/26 06:24:29;;;;;;;2.20;1.50;;;9.30;1.40;;;10.42;100.00;94938.36;646570;216;31574;-74
2022/04/26 06:27:10;;;;;;;2.30;1.60;;;9.10;1.40;;;10.45;100.00;94939.78;646055;216;31549;-75
2022/04/26 06:29:52;;;;;;;3.13;1.60;;;9.10;1.40;;;10.51;100.00;94947.31;646583;216;31602;-74
2022/04/26 06:32:34;;;;;;;2.57;1.40;;;9.30;1.40;;;10.58;100.00;94945.69;646436;216;31576;-74
2022/04/26 06:35:51;;;;;;;;;;;9.20;1.40;;;10.58;100.00;94944.06;652581;216;24912;-73
2022/04/26 06:38:33;;;;;;;;;;;9.30;1.40;;;10.90;100.00;94940.30;654756;212;24838;-73
2022/04/26 06:41:15;;;;;;;;;;;9.60;1.40;;;10.80;100.00;94944.14;649257;216;24819;-74
2022/04/26 06:43:55;;;;;;;;;;;9.50;1.40;;;10.87;100.00;94942.74;652878;212;25386;-74
2022/04/26 06:46:37;;;;;;;;;;;9.70;1.40;;;11.31;100.00;94938.61;654007;216;24814;-73
2022/04/26 06:49:18;;;;;;;;;;;10.00;1.40;;;11.10;100.00;94942.25;653007;216;24825;-75
2022/04/26 06:54:23;;;;;;;;;;;9.60;1.40;;;10.80;100.00;94944.19;653517;216;24895;-74
2022/04/26 06:57:04;;;;;;;;;;;9.50;1.40;;;10.92;100.00;94939.58;653652;212;25367;-73
2022/04/26 06:59:49;;;;;;;;;;;9.60;1.40;;;11.14;100.00;94934.41;652708;216;24879;-74
2022/04/26 07:02:30;;;;;;;;;;;9.80;1.40;;;10.86;100.00;94939.07;652678;216;25338;-73
2022/04/26 07:05:11;;;;;;;;;;;9.80;1.40;;;10.96;100.00;94937.03;652376;216;24720;-73
2022/04/26 07:07:53;;;;;;;;;;;10.20;1.40;;;11.60;100.00;94938.67;652191;216;24861;-73
2022/04/26 07:10:34;;;;;;;;;;;10.80;1.40;;;11.34;100.00;94941.56;652056;212;24864;-74
2022/04/26 07:13:18;;;;;;;;;;;10.30;1.40;;;11.32;100.00;94940.87;654605;216;25172;-74
2022/04/26 07:16:00;;;;;;;;;;;10.30;1.40;;;11.44;100.00;94946.61;652471;216;24827;-73
2022/04/26 07:18:41;;;;;;;;;;;10.40;1.40;;;11.68;100.00;94954.19;653436;216;25079;-73
2022/04/26 07:21:22;;;;;;;;;;;10.40;1.40;;;11.58;100.00;94954.55;652335;216;24932;-73
2022/04/26 07:24:04;;;;;;;;;;;10.50;1.40;;;11.65;100.00;94961.79;653122;216;24831;-73
2022/04/26 07:26:46;;;;;;;;;;;10.20;1.40;;;11.57;100.00;94955.81;652867;216;24770;-73
2022/04/26 07:29:26;;;;;;;;;;;10.30;1.40;;;11.53;100.00;94957.64;652906;216;24811;-74
2022/04/26 07:32:08;;;;;;;;;;;10.30;1.40;;;11.71;100.00;94959.16;649801;216;24808;-73
2022/04/26 07:35:51;;;;;;;1.40;1.20;;;10.60;1.40;;;12.03;100.00;94958.67;645702;216;31966;-73
2022/04/26 07:38:35;;;;;;;1.67;1.00;;;10.80;1.40;;;12.05;100.00;94959.08;645522;212;31582;-74
2022/04/26 07:41:17;;;;;;;1.55;1.27;;;11.00;1.40;;;12.51;100.00;94965.28;642801;215;32258;-74
2022/04/26 07:43:58;;;;;;;2.20;1.58;;;11.30;1.40;;;12.61;100.00;94967.94;646414;212;32151;-74
2022/04/26 07:46:40;;;;;;;1.00;0.90;;;11.10;1.40;;;13.10;100.00;94971.32;647655;216;32039;-73
2022/04/26 07:49:23;;;;;;;1.70;1.30;;;11.80;1.40;;;13.32;100.00;94969.93;619045;222;31881;-74
2022/04/26 07:52:06;;;;;;;1.25;0.88;;;11.90;1.40;;;13.49;100.00;94964.21;646038;216;31623;-74
2022/04/26 07:54:48;;;;;;;1.02;0.85;;;12.00;1.40;;;13.18;100.00;94974.53;642530;215;42825;-73
2022/04/26 07:57:30;;;;;;;1.25;0.80;;;11.60;1.40;;;12.97;100.00;94979.77;618496;226;31837;-73
2022/04/26 08:00:12;;;;;;;0.70;0.57;;;11.40;1.40;;;13.18;100.00;94979.18;645975;216;42144;-73
2022/04/26 08:02:55;;;;;;;1.17;0.90;;;11.60;1.40;;;13.40;100.00;94980.72;646204;212;37918;-73
2022/04/26 08:05:35;;;;;;;0.80;0.68;;;11.40;1.40;;;13.16;100.00;94979.54;646897;212;31470;-74
2022/04/26 08:08:20;;;;;;;0.88;0.70;;;11.40;1.40;;;12.96;100.00;94977.75;641329;216;42307;-75
2022/04/26 08:11:03;;;;;;;1.60;0.80;;;11.60;1.40;;;12.90;100.00;94983.16;645975;212;31542;-73
2022/04/26 08:13:43;;;;;;;0.90;0.90;;;11.50;1.40;;;12.94;100.00;94986.00;618778;222;39273;-73
2022/04/26 08:16:25;;;;;;;1.50;0.80;;;11.70;1.40;;;12.99;100.00;94988.24;647039;216;31509;-73
2022/04/26 08:19:10;;;;;;;1.50;1.40;;;11.30;1.40;;;13.05;100.00;94989.74;645602;212;39403;-73
2022/04/26 08:21:51;;;;;;;1.20;0.80;;;11.30;1.40;;;13.54;100.00;94997.61;646862;216;31572;-73
2022/04/26 08:27:25;;;;;;;1.42;0.52;;;11.00;1.40;;;12.45;100.00;95000.80;647564;212;37710;-73
2022/04/26 08:30:05;;;;;;;0.80;0.80;;;10.70;1.40;;;12.19;100.00;94998.94;646026;216;31519;-74
2022/04/26 08:32:50;;;;;;;0.68;0.45;;;10.70;1.40;;;12.02;100.00;95005.92;645989;212;35972;-73
2022/04/26 08:35:51;;;;;;;1.10;0.80;;;10.70;1.40;;;11.90;100.00;95011.70;630564;221;32306;-73
2022/04/26 08:38:35;;;;;;;1.30;1.10;;;10.80;1.40;;;11.68;100.00;95008.23;645835;216;31567;-76
2022/04/26 08:41:17;;;;;;;1.00;0.87;;;10.60;1.40;;;11.76;100.00;95008.47;647253;216;31546;-73
2022/04/26 08:43:59;;;;;;;1.10;0.70;;;10.60;1.40;;;11.71;100.00;95013.30;646658;212;31487;-73
2022/04/26 08:52:15;;;;;;;0.98;0.90;;;10.40;1.40;;;11.61;100.00;95012.26;646764;212;31699;-74
2022/04/26 08:54:59;;;;;;;0.70;0.70;;;10.40;1.40;;;11.50;100.00;95011.74;645079;216;31539;-73
2022/04/26 08:57:40;;;;;;;1.03;0.93;;;10.30;1.40;;;11.34;100.00;95013.21;647770;212;31504;-74
2022/04/26 09:00:22;;;;;;;0.47;0.40;;;10.10;1.40;;;11.30;100.00;95013.86;644997;216;42808;-73
2022/04/26 09:03:05;;;;;;;1.20;1.10;;;10.20;1.40;;;11.52;100.00;95010.64;646842;216;43250;-74
2022/04/26 09:05:46;;;;;;;1.80;0.90;;;10.40;1.40;;;11.64;100.00;95015.48;646775;216;31667;-73
2022/04/26 09:08:28;;;;;;;0.70;0.60;;;10.50;1.40;;;11.67;100.00;95012.22;647147;216;31554;-73
2022/04/26 09:11:19;;;;;;;0.50;0.40;;;10.50;1.40;;;11.71;100.00;95011.39;645703;216;31615;-73
2022/04/26 09:14:02;;;;;;;0.60;0.52;;;10.50;1.40;;;11.43;100.00;95013.39;646547;216;31493;-73
2022/04/26 09:16:44;;;;;;;0.60;0.50;;;10.30;1.40;;;11.22;100.00;95006.69;646710;212;32234;-74
2022/04/26 09:19:46;;;;;;;0.53;0.53;;;10.30;1.40;;;11.13;100.00;95012.48;621699;222;42584;-77
2022/04/26 09:22:30;;;;;;;0.70;0.50;;;10.10;1.40;;;10.85;100.00;95016.98;647170;216;31576;-73
2022/04/26 09:25:12;;;;;;;0.60;0.60;;;9.90;1.40;;;10.53;100.00;95017.59;618903;226;42499;-73
2022/04/26 09:27:53;;;;;;;0.60;0.60;;;9.80;1.40;;;10.54;100.00;95014.92;647491;212;31575;-73
2022/04/26 09:30:36;;;;;;;0.90;0.70;;;9.70;1.40;;;10.70;100.00;95011.83;645958;216;42298;-73
2022/04/26 09:35:53;;;;;;;1.08;0.65;;;9.70;1.40;;;10.48;100.00;95013.34;647258;216;31609;-73
2022/04/26 09:38:33;;;;;;;0.80;0.70;;;9.70;1.40;;;10.34;100.00;95011.27;647387;216;31912;-73
2022/04/26 09:41:15;;;;;;;0.52;0.52;;;9.50;1.40;;;10.34;100.00;95011.83;645570;216;31477;-74
2022/04/26 09:44:04;;;;;;;0.40;0.30;;;9.50;1.40;;;10.38;100.00;95010.63;619125;222;42488;-76
2022/04/26 09:46:47;;;;;;;0.67;0.60;;;9.60;1.40;;;10.48;100.00;95008.10;646428;212;31528;-73
2022/04/26 09:49:28;;;;;;;0.80;0.67;;;9.70;1.40;;;10.59;100.00;95012.70;647125;216;42446;-73
2022/04/26 09:52:15;;;;;;;0.93;0.60;;;9.70;1.40;;;10.83;100.00;95018.89;648539;216;32111;-74
2022/04/26 09:54:54;;;;;;;0.77;0.73;;;9.90;1.40;;;10.74;100.00;95018.41;647716;216;42988;-73
2022/04/26 09:57:36;;;;;;;0.93;0.62;;;9.80;1.40;;;10.77;100.00;95022.88;646133;216;32090;-74
2022/04/26 10:00:19;;;;;;;1.00;0.50;;;9.70;1.40;;;10.69;100.00;95028.72;646106;216;31615;-73
2022/04/26 10:03:01;;;;;;;0.95;0.90;;;9.70;1.40;;;10.79;100.00;95024.05;646003;216;31500;-73
2022/04/26 10:05:41;;;;;;;0.98;0.70;;;9.80;1.40;;;10.75;100.00;95031.57;620503;226;31906;-73
2022/04/26 10:08:22;;;;;;;1.10;0.70;;;9.80;1.40;;;10.76;100.00;95023.25;641945;216;31711;-73
2022/04/26 10:11:04;;;;;;;2.45;0.85;;;9.80;1.40;;;10.83;100.00;95020.52;647082;216;42194;-73
2022/04/26 10:13:48;;;;;;;1.00;0.50;;;9.60;1.40;;;10.72;100.00;95019.31;646533;212;32103;-74
2022/04/26 10:16:31;;;;;;;0.85;0.85;;;9.40;1.40;;;10.66;100.00;95014.31;646094;216;42301;-74
2022/04/26 10:19:12;;;;;;;4.33;3.80;;;9.50;1.40;;;10.39;100.00;95024.08;646124;216;31723;-73
2022/04/26 10:21:54;;;;;;;3.25;0.77;;;9.40;1.40;;;10.54;100.00;95021.33;646960;216;31626;-74
2022/04/26 10:24:36;;;;;;;9.15;5.75;;;9.50;1.40;;;10.43;100.00;95023.47;647430;216;31626;-74
2022/04/26 10:27:23;;;;;;;59.23;21.43;;;9.40;1.40;;;10.00;100.00;95028.63;619997;222;31966;-78
2022/04/26 10:30:07;;;;;;;7.03;4.67;;;9.10;1.40;;;9.98;100.00;95025.45;646823;216;42851;-73
2022/04/26 10:32:50;;;;;;;22.85;10.50;;;9.10;1.40;;;10.10;100.00;95029.92;646582;215;31919;-73
2022/04/26 10:35:56;;;;;;;14.65;7.03;;;9.30;1.40;;;9.98;100.00;95024.47;643499;216;31674;-77
2022/04/26 10:38:44;;;;;;;9.80;5.00;;;9.20;1.40;;;9.99;100.00;95030.72;646527;216;31582;-74
2022/04/26 10:41:34;;;;;;;2.17;1.00;;;9.20;1.40;;;9.90;100.00;95032.53;647260;216;31553;-74
2022/04/26 10:44:31;;;;;;;1.40;0.80;;;9.20;1.40;;;9.97;100.00;95037.72;646352;216;31589;-75
2022/04/26 10:49:47;;;;;;;1.40;0.40;;;8.90;1.40;;;9.32;100.00;95071.27;646199;216;31483;-73
2022/04/26 10:52:33;;;;;;;0.60;0.30;;;8.30;1.40;;;8.40;100.00;95069.58;619563;222;31834;-73
2022/04/26 10:55:18;;;;;;;2.53;0.73;;;7.30;1.40;;;8.27;100.00;95075.30;648831;212;31781;-76
2022/04/26 10:58:05;;;;;;;7.65;2.25;;;7.30;1.40;;;8.25;100.00;95077.44;647231;212;42777;-75
2022/04/26 11:00:47;;;;;;;0.80;0.80;;;7.40;1.40;;;8.13;100.00;95082.50;645730;216;31695;-74
2022/04/26 11:03:28;;;;;;;0.70;0.70;;;7.30;1.40;;;8.08;100.00;95096.02;646578;212;31809;-72
2022/04/26 11:06:10;;;;;;;1.40;1.00;;;7.20;1.40;;;8.14;100.00;95099.01;646026;216;31601;-73
2022/04/26 11:09:09;;;;;;;;;;;7.30;1.40;;;8.07;100.00;95106.14;653044;212;24909;-73
2022/04/26 11:11:50;;;;;;;;;;;7.20;1.40;;;7.98;100.00;95113.02;652697;212;24836;-75
2022/04/26 11:14:31;;;;;;;;;;;7.20;1.40;;;8.04;100.00;95114.83;654423;212;25218;-73
2022/04/26 11:17:13;;;;;;;;;;;7.20;1.40;;;7.96;100.00;95120.45;653398;212;24749;-75
2022/04/26 11:19:58;;;;;;;;;;;7.20;1.40;;;7.98;100.00;95131.80;653318;216;25223;-72
2022/04/26 11:22:47;;;;;;;;;;;7.10;1.40;;;8.01;100.00;95141.82;652745;212;24815;-73
2022/04/26 11:28:17;;;;;;;;;;;7.20;1.40;;;8.05;100.00;95147.96;652893;212;24832;-73
2022/04/26 11:30:57;;;;;;;;;;;7.20;1.40;;;7.90;100.00;95153.48;654266;216;24755;-73
2022/04/26 11:35:54;;;;;;;;;;;7.00;1.40;;;7.65;100.00;95163.94;653478;216;25298;-72
2022/04/26 11:38:35;;;;;;;;;;;6.90;1.40;;;7.57;100.00;95175.52;651940;216;24810;-72
2022/04/26 11:41:16;;;;;;;;;;;6.90;1.40;;;7.68;100.00;95185.70;652976;216;24726;-72
2022/04/26 11:44:05;;;;;;;;;;;6.90;1.40;;;7.53;100.00;95184.86;653173;216;25052;-72
2022/04/26 11:46:57;;;;;;;;;;;6.70;1.40;;;7.46;100.00;95188.91;653346;216;25335;-73
2022/04/26 11:49:39;;;;;;;;;;;6.70;1.40;;;7.48;100.00;95193.45;652810;216;24827;-73
2022/04/26 11:52:23;;;;;;;;;;;6.70;1.40;;;7.54;100.00;95198.12;646361;214;24908;-73
2022/04/26 11:55:05;;;;;;;;;;;6.70;1.40;;;7.41;100.00;95199.19;652007;216;25768;-72
2022/04/26 11:57:46;;;;;;;;;;;6.70;1.40;;;7.39;100.00;95205.90;653057;212;24785;-72
2022/04/26 12:00:27;;;;;;;;;;;6.70;1.40;;;7.35;100.00;95196.47;653558;216;24811;-74
2022/04/26 12:03:09;;;;;;;;;;;6.70;1.40;;;7.42;100.00;95197.45;654059;212;24833;-73
2022/04/26 12:05:59;;;;;;;;;;;6.70;1.40;;;7.52;100.00;95196.38;651909;216;24918;-72
2022/04/26 12:08:42;;;;;;;;;;;6.80;1.40;;;7.59;100.00;95202.95;646566;216;24869;-72
2022/04/26 12:11:26;;;;;;;;;;;6.80;1.40;;;7.62;100.00;95206.77;652463;216;24842;-73
2022/04/26 12:14:13;;;;;;;;;;;6.90;1.40;;;7.56;100.00;95210.98;652644;216;24811;-73
2022/04/26 12:16:55;;;;;;;;;;;6.70;1.40;;;7.38;100.00;95211.31;653083;212;24967;-72
2022/04/26 12:19:35;;;;;;;;;;;6.70;1.40;;;7.40;100.00;95214.09;652590;216;24818;-72
2022/04/26 12:22:17;;;;;;;;;;;6.70;1.40;;;7.31;100.00;95221.17;652425;216;24731;-72
2022/04/26 12:24:58;;;;;;;;;;;6.60;1.40;;;7.14;100.00;95227.02;653071;212;24720;-72
2022/04/26 12:27:39;;;;;;;;;;;6.40;1.40;;;7.19;100.00;95232.39;652685;212;24834;-72
2022/04/26 12:30:22;;;;;;;;;;;6.50;1.40;;;7.06;100.00;95234.84;654551;212;24832;-80
2022/04/26 12:36:00;;;;;;;;;;;6.30;1.40;;;7.13;100.00;95229.67;648567;216;25251;-72
2022/04/26 12:38:45;;;;;;;;;;;6.40;1.40;;;6.98;100.00;95244.85;653395;216;24834;-71
2022/04/26 12:41:27;;;;;;;;;;;6.20;1.40;;;6.94;100.00;95241.39;652269;212;24824;-72
2022/04/26 12:44:09;;;;;;;;;;;6.20;1.40;;;6.97;100.00;95238.88;653349;216;24838;-73
2022/04/26 12:52:38;;;;;;;;;;;6.30;1.40;;;6.93;100.00;95249.33;652863;212;24829;-72
2022/04/26 12:55:29;;;;;;;;;;;6.20;1.40;;;6.99;100.00;95248.67;653904;216;24899;-72
2022/04/26 12:58:10;;;;;;;;;;;6.30;1.40;;;6.93;100.00;95247.81;654149;212;25459;-74
2022/04/26 13:00:51;;;;;;;;;;;6.20;1.40;;;7.03;100.00;95250.63;648781;216;24819;-73
2022/04/26 13:03:32;;;;;;;;;;;6.30;1.40;;;6.95;100.00;95250.44;653307;216;24816;-72
2022/04/26 13:06:14;;;;;;;;;;;6.20;1.40;;;7.23;100.00;95247.17;653265;212;24807;-72
2022/04/26 13:08:59;;;;;;;;;;;6.40;1.40;;;7.38;100.00;95241.89;652145;216;24740;-72
2022/04/26 13:11:42;;;;;;;;;;;6.60;1.40;;;7.18;100.00;95232.47;652452;212;25579;-73
2022/04/26 13:14:26;;;;;;;;;;;6.30;1.40;;;7.09;100.00;95232.03;653247;216;24715;-73
2022/04/26 13:17:07;;;;;;;;;;;6.20;1.40;;;6.90;100.00;95215.63;653581;212;24806;-72
2022/04/26 13:19:50;;;;;;;;;;;6.00;1.40;;;7.24;100.00;95197.34;653195;216;24808;-72
2022/04/26 13:22:34;;;;;;;;;;;6.40;1.40;;;7.64;100.00;95185.05;648514;216;24765;-72
2022/04/26 13:25:15;;;;;;;;;;;6.70;1.40;;;7.75;100.00;95222.01;652859;212;24756;-72
2022/04/26 13:27:57;;;;;;;;;;;6.80;1.40;;;8.55;100.00;95207.03;653165;216;24824;-72
2022/04/26 13:30:38;;;;;;;;;;;7.60;1.40;;;8.82;100.00;95195.02;654271;212;25327;-73
2022/04/26 13:35:56;;;;;;;0.70;0.50;;;7.30;1.40;;;8.54;100.00;95211.70;646951;212;31470;-75
2022/04/26 13:38:38;;;;;;;0.57;0.57;;;7.20;1.40;;;8.15;100.00;95232.20;619242;222;31909;-73
2022/04/26 13:41:19;;;;;;;0.40;0.40;;;6.90;1.40;;;8.32;100.00;95239.95;645671;212;31654;-75
2022/04/26 13:44:01;;;;;;;0.55;0.47;;;7.10;1.40;;;8.91;100.00;95240.48;647225;216;42644;-74
2022/04/26 13:46:45;;;;;;;0.40;0.30;;;7.70;1.40;;;9.48;100.00;95235.86;646975;216;31499;-73
2022/04/26 13:49:27;;;;;;;;;;;8.10;1.40;;;9.39;100.00;95257.20;649191;216;25325;-73
2022/04/26 13:52:09;;;;;;;;;;;7.80;1.40;;;9.56;100.00;95243.63;653457;212;24806;-73
2022/04/26 13:54:49;;;;;;;;;;;8.30;1.40;;;9.53;100.00;95250.93;652755;216;24820;-72
2022/04/26 13:57:38;;;;;;;;;;;8.40;1.40;;;9.88;100.00;95263.70;651815;215;24904;-80
2022/04/26 14:00:22;;;;;;;;;;;8.60;1.40;;;9.70;100.00;95267.92;652586;216;25343;-73
2022/04/26 14:03:03;;;;;;;;;;;8.50;1.40;;;9.39;100.00;95279.76;653256;216;24830;-73
2022/04/26 14:05:46;;;;;;;;;;;8.00;1.40;;;9.08;100.00;95275.60;653290;216;25304;-74
2022/04/26 14:08:27;;;;;;;;;;;7.60;1.40;;;8.71;100.00;95279.52;647650;216;24916;-72
2022/04/26 14:11:07;;;;;;;;;;;7.50;1.40;;;8.79;100.00;95276.59;652930;216;24794;-75
2022/04/26 14:22:12;;;;;;;;;;;7.80;1.40;;;8.53;100.00;95278.92;653746;216;24935;-73
2022/04/26 14:24:56;;;;;;;;;;;7.70;1.40;;;8.46;100.00;95277.58;653334;216;24812;-73
2022/04/26 14:27:38;;;;;;;;;;;7.60;1.40;;;8.34;100.00;95283.65;652896;216;24850;-73
2022/04/26 14:30:19;;;;;;;;;;;7.50;1.40;;;8.41;100.00;95290.75;653542;212;25079;-73
2022/04/26 14:33:01;;;;;;;;;;;7.50;1.40;;;8.31;100.00;95292.80;652387;216;25503;-73
2022/04/26 14:38:29;;;;;;;1.30;1.20;;;7.60;1.40;;;8.48;100.00;95293.23;646538;212;32329;-73
2022/04/26 14:41:11;;;;;;;0.60;0.40;;;7.90;1.40;;;8.80;100.00;95300.68;620099;222;31842;-73
2022/04/26 14:43:52;;;;;;;1.08;0.57;;;8.20;1.40;;;9.03;100.00;95299.81;646310;216;31610;-73
2022/04/26 14:46:34;;;;;;;1.30;0.47;;;8.40;1.40;;;9.36;100.00;95306.28;644998;216;31592;-73
2022/04/26 14:49:16;;;;;;;1.00;0.80;;;8.50;1.40;;;9.32;100.00;95313.28;646751;216;31568;-74
2022/04/26 14:51:57;;;;;;;1.37;0.70;;;8.40;1.40;;;9.51;100.00;95315.44;647059;216;31574;-73
2022/04/26 14:54:40;;;;;;;1.50;1.00;;;8.50;1.40;;;9.45;100.00;95320.19;646216;212;31645;-73
2022/04/26 14:57:21;;;;;;;1.17;0.90;;;8.60;1.40;;;9.52;100.00;95317.03;646077;212;32285;-75
2022/04/26 15:00:06;;;;;;;0.70;0.70;;;8.80;1.40;;;9.83;100.00;95316.06;646836;212;31947;-73
2022/04/26 15:02:48;;;;;;;1.20;1.10;;;9.20;1.40;;;11.04;100.00;95316.62;645886;216;31551;-73
2022/04/26 15:05:33;;;;;;;3.50;1.07;;;10.30;1.40;;;11.21;100.00;95317.59;645994;216;31526;-73
2022/04/26 15:11:01;;;;;;;1.37;0.90;;;12.10;1.40;;;12.73;100.00;95310.58;646950;212;32207;-73
2022/04/26 15:19:17;;;;;;;2.05;1.62;;;9.90;1.40;;;10.75;100.00;95319.64;647120;216;40794;-73
2022/04/26 15:21:59;;;;;;;2.00;1.65;;;9.60;1.40;;;10.52;100.00;95312.58;645738;212;31491;-73
2022/04/26 15:24:42;;;;;;;3.33;2.57;;;9.60;1.40;;;10.33;100.00;95314.69;646780;212;31577;-73
2022/04/26 15:27:23;;;;;;;1.65;1.27;;;9.30;1.40;;;10.31;100.00;95312.12;647770;216;31992;-76
2022/04/26 15:30:05;;;;;;;1.20;0.90;;;9.60;1.40;;;10.21;100.00;95321.25;645896;213;31865;-75
2022/04/26 15:32:49;;;;;;;1.10;0.80;;;9.30;1.40;;;9.82;100.00;95328.36;646419;216;42133;-73
2022/04/26 15:35:51;;;;;;;1.80;1.20;;;9.00;1.40;;;9.48;100.00;95331.67;647166;216;31664;-73
2022/04/26 15:38:33;;;;;;;1.00;0.80;;;8.70;1.40;;;8.75;100.00;95338.72;647058;212;31868;-72
2022/04/26 15:41:14;;;;;;;1.15;1.05;;;7.60;1.40;;;8.40;100.00;95328.63;646214;212;31615;-72
2022/04/26 15:43:56;;;;;;;0.80;0.70;;;7.30;1.40;;;8.34;100.00;95326.97;646477;216;31700;-72
2022/04/26 15:46:38;;;;;;;1.90;1.50;;;7.60;1.40;;;9.56;100.00;95321.23;645249;216;31599;-72
2022/04/26 15:49:20;;;;;;;1.40;1.30;;;9.50;1.40;;;10.06;100.00;95322.06;648066;212;31724;-74
2022/04/26 15:52:04;;;;;;;0.90;0.60;;;8.90;1.40;;;9.75;100.00;95324.02;646631;212;31534;-72
2022/04/26 15:54:50;;;;;;;1.03;0.93;;;8.30;1.40;;;9.08;100.00;95333.59;645493;215;32166;-72
2022/04/26 15:57:31;;;;;;;0.73;0.73;;;7.80;1.40;;;8.88;100.00;95330.02;645602;216;31545;-72
2022/04/26 16:02:47;;;;;;;;;;;7.80;1.40;;;8.61;100.00;95320.27;651420;216;25202;-72
2022/04/26 16:05:29;;;;;;;;;;;7.80;1.40;;;8.58;100.00;95327.95;653373;212;24823;-72
2022/04/26 16:08:12;;;;;;;;;;;7.80;1.40;;;8.74;100.00;95326.84;649925;216;24484;-72
2022/04/26 16:22:02;;;;;;;;;;;8.30;1.40;;;8.98;100.00;95339.87;652820;216;24841;-72
2022/04/26 16:24:45;;;;;;;;;;;8.20;1.40;;;8.89;100.00;95336.37;652860;216;25230;-73
2022/04/26 16:27:27;;;;;;;;;;;8.20;1.40;;;8.86;100.00;95335.72;648631;215;24808;-73
2022/04/26 16:30:10;;;;;;;;;;;8.20;1.40;;;8.67;100.00;95338.77;652307;215;24758;-74
2022/04/26 16:32:51;;;;;;;;;;;8.20;1.40;;;9.03;100.00;95335.18;648274;216;24755;-72
2022/04/26 16:35:54;;;;;;;0.70;0.50;;;8.70;1.40;;;9.39;100.00;95328.13;646769;212;31514;-74
2022/04/26 16:38:36;;;;;;;1.30;0.93;;;9.00;1.40;;;9.80;100.00;95328.95;647410;216;31835;-75
2022/04/26 16:41:17;;;;;;;;;;;9.40;1.40;;;10.05;100.00;95324.25;654244;216;24844;-72
2022/04/26 16:43:59;;;;;;;;;;;9.30;1.40;;;9.95;100.00;95325.85;651918;216;24900;-72
2022/04/26 16:46:40;;;;;;;;;;;8.90;1.40;;;9.45;100.00;95333.27;653232;216;24841;-72
2022/04/26 16:49:21;;;;;;;;;;;8.70;1.40;;;9.17;100.00;95337.02;653291;212;24846;-74